<?xml version='1.0' encoding='UTF-8'?><gpx version="1.1" creator="JPX - https://github.com/jenetics/jpx" xmlns="http://www.topografix.com/GPX/1/1"><trk><trkseg><trkpt lat="44.88347545445596" lon="8.969733482634211"><ele>266.0</ele><time>2026-05-01T09:56:06.999Z</time></trkpt><trkpt lat="44.88349815867799" lon="8.9696469175797"><ele>266.0</ele><time>2026-05-01T09:56:13.999Z</time></trkpt><trkpt lat="44.88351540117412" lon="8.969555433232882"><ele>266.0</ele><time>2026-05-01T09:56:20.999Z</time></trkpt><trkpt lat="44.88352179943523" lon="8.969450317604991"><ele>266.0</ele><time>2026-05-01T09:56:27.999Z</time></trkpt><trkpt lat="44.883548380383765" lon="8.969358842567152"><ele>266.0</ele><time>2026-05-01T09:56:37.999Z</time></trkpt><trkpt lat="44.88359327147371" lon="8.969278782085805"><ele>266.0</ele><time>2026-05-01T09:56:47.998Z</time></trkpt><trkpt lat="44.88362801190196" lon="8.969191357224496"><ele>266.0</ele><time>2026-05-01T09:56:57.998Z</time></trkpt><trkpt lat="44.883628285015355" lon="8.969100115201025"><ele>268.2857142857143</ele><time>2026-05-01T09:57:06.998Z</time></trkpt><trkpt lat="44.883622346691574" lon="8.969009515804906"><ele>270.57142857142856</ele><time>2026-05-01T09:57:13.998Z</time></trkpt><trkpt lat="44.88362757083232" lon="8.968911192744"><ele>272.8571428571429</ele><time>2026-05-01T09:57:22.997Z</time></trkpt><trkpt lat="44.8836721359407" lon="8.968830884294608"><ele>275.1428571428571</ele><time>2026-05-01T09:57:32.997Z</time></trkpt><trkpt lat="44.88373994777584" lon="8.968852116026342"><ele>277.42857142857144</ele><time>2026-05-01T09:57:40.997Z</time></trkpt><trkpt lat="44.88380422671376" lon="8.968875271151404"><ele>279.7142857142857</ele><time>2026-05-01T09:57:49.997Z</time></trkpt><trkpt lat="44.88386270241785" lon="8.968931327529276"><ele>282.0</ele><time>2026-05-01T09:57:57.996Z</time></trkpt><trkpt lat="44.883935622828865" lon="8.968945621870093"><ele>282.0</ele><time>2026-05-01T09:58:04.999Z</time></trkpt><trkpt lat="44.883998495044466" lon="8.968977668092656"><ele>282.0</ele><time>2026-05-01T09:58:11.999Z</time></trkpt><trkpt lat="44.884070833922436" lon="8.969006118922081"><ele>282.0</ele><time>2026-05-01T09:58:19.999Z</time></trkpt><trkpt lat="44.884130152397354" lon="8.969039551321428"><ele>282.0</ele><time>2026-05-01T09:58:26.999Z</time></trkpt><trkpt lat="44.88419445011522" lon="8.969089312664178"><ele>282.0</ele><time>2026-05-01T09:58:34.999Z</time></trkpt><trkpt lat="44.884263160361044" lon="8.969126778398303"><ele>282.0</ele><time>2026-05-01T09:58:43.999Z</time></trkpt><trkpt lat="44.88432335946001" lon="8.969164074508317"><ele>282.0</ele><time>2026-05-01T09:58:49.999Z</time></trkpt><trkpt lat="44.8843806074894" lon="8.969202472720012"><ele>279.7142857142857</ele><time>2026-05-01T09:58:56.998Z</time></trkpt><trkpt lat="44.88444845133283" lon="8.969233255083225"><ele>277.42857142857144</ele><time>2026-05-01T09:59:03.998Z</time></trkpt><trkpt lat="44.884505036446" lon="8.96928218934978"><ele>275.1428571428571</ele><time>2026-05-01T09:59:10.998Z</time></trkpt><trkpt lat="44.884572440755" lon="8.96928676370428"><ele>272.8571428571429</ele><time>2026-05-01T09:59:33.997Z</time></trkpt><trkpt lat="44.88464207270347" lon="8.969298244942442"><ele>270.57142857142856</ele><time>2026-05-01T09:59:45.997Z</time></trkpt><trkpt lat="44.88471351825376" lon="8.969298943871026"><ele>268.2857142857143</ele><time>2026-05-01T09:59:52.997Z</time></trkpt><trkpt lat="44.88477853975857" lon="8.96928612015353"><ele>266.0</ele><time>2026-05-01T09:59:59.997Z</time></trkpt><trkpt lat="44.88485914387651" lon="8.96926304984073"><ele>266.0</ele><time>2026-05-01T10:00:08.996Z</time></trkpt><trkpt lat="44.88492942138181" lon="8.96924857120856"><ele>266.0</ele><time>2026-05-01T10:00:14.999Z</time></trkpt><trkpt lat="44.884990534904944" lon="8.969226279837283"><ele>266.0</ele><time>2026-05-01T10:00:20.999Z</time></trkpt><trkpt lat="44.88505826623298" lon="8.969198466526823"><ele>266.0</ele><time>2026-05-01T10:00:26.999Z</time></trkpt><trkpt lat="44.885122781514525" lon="8.969165109497975"><ele>266.0</ele><time>2026-05-01T10:00:32.999Z</time></trkpt><trkpt lat="44.88519049263259" lon="8.969120013135367"><ele>266.0</ele><time>2026-05-01T10:00:38.999Z</time></trkpt><trkpt lat="44.885248312091214" lon="8.969067133176472"><ele>266.0</ele><time>2026-05-01T10:00:44.999Z</time></trkpt><trkpt lat="44.88529597063469" lon="8.968991528761967"><ele>266.85714285714283</ele><time>2026-05-01T10:00:50.998Z</time></trkpt><trkpt lat="44.885350659871" lon="8.968938904956369"><ele>267.7142857142857</ele><time>2026-05-01T10:00:57.998Z</time></trkpt><trkpt lat="44.885407515842076" lon="8.96886690930713"><ele>268.57142857142856</ele><time>2026-05-01T10:01:04.998Z</time></trkpt><trkpt lat="44.88547494077945" lon="8.968813709073574"><ele>269.42857142857144</ele><time>2026-05-01T10:01:10.998Z</time></trkpt><trkpt lat="44.88554084786377" lon="8.968772158932733"><ele>270.2857142857143</ele><time>2026-05-01T10:01:16.998Z</time></trkpt><trkpt lat="44.885604622439466" lon="8.968724127597334"><ele>271.1428571428571</ele><time>2026-05-01T10:01:23.998Z</time></trkpt><trkpt lat="44.885666050127746" lon="8.968681320468137"><ele>272.0</ele><time>2026-05-01T10:01:30.997Z</time></trkpt><trkpt lat="44.88573012756626" lon="8.968644840192086"><ele>271.99999999999994</ele><time>2026-05-01T10:01:36.997Z</time></trkpt><trkpt lat="44.88578887286274" lon="8.968591525086609"><ele>272.0</ele><time>2026-05-01T10:01:43.997Z</time></trkpt><trkpt lat="44.885851815443374" lon="8.968531923264193"><ele>272.0</ele><time>2026-05-01T10:01:49.997Z</time></trkpt><trkpt lat="44.88589320325988" lon="8.968457640692224"><ele>272.0</ele><time>2026-05-01T10:02:02.997Z</time></trkpt><trkpt lat="44.88592895147429" lon="8.968361831896628"><ele>272.0</ele><time>2026-05-01T10:02:10.996Z</time></trkpt><trkpt lat="44.88599295478679" lon="8.968399947759481"><ele>271.99999999999994</ele><time>2026-05-01T10:02:30.999Z</time></trkpt><trkpt lat="44.88599368217515" lon="8.968490246782062"><ele>272.0</ele><time>2026-05-01T10:02:56.999Z</time></trkpt><trkpt lat="44.88603501531837" lon="8.968577326583132"><ele>271.1428571428571</ele><time>2026-05-01T10:03:06.998Z</time></trkpt><trkpt lat="44.886092030214286" lon="8.968617399801273"><ele>270.2857142857143</ele><time>2026-05-01T10:03:16.998Z</time></trkpt><trkpt lat="44.88613380196115" lon="8.968696835348346"><ele>269.42857142857144</ele><time>2026-05-01T10:03:24.998Z</time></trkpt><trkpt lat="44.88612774176185" lon="8.968789383000665"><ele>268.57142857142856</ele><time>2026-05-01T10:03:32.998Z</time></trkpt><trkpt lat="44.886091293419184" lon="8.968869155053532"><ele>267.7142857142857</ele><time>2026-05-01T10:03:40.998Z</time></trkpt><trkpt lat="44.88613250579351" lon="8.968943708876832"><ele>266.85714285714283</ele><time>2026-05-01T10:03:48.997Z</time></trkpt><trkpt lat="44.88617328527627" lon="8.969025433890678"><ele>266.0</ele><time>2026-05-01T10:03:57.997Z</time></trkpt><trkpt lat="44.88617757344882" lon="8.969117947011673"><ele>262.85714285714283</ele><time>2026-05-01T10:04:07.997Z</time></trkpt><trkpt lat="44.8861707770928" lon="8.969207736991695"><ele>259.7142857142857</ele><time>2026-05-01T10:04:18.997Z</time></trkpt><trkpt lat="44.88610874948102" lon="8.969262730830787"><ele>256.57142857142856</ele><time>2026-05-01T10:04:36.999Z</time></trkpt><trkpt lat="44.8860841073404" lon="8.969347982389685"><ele>253.42857142857142</ele><time>2026-05-01T10:04:52.999Z</time></trkpt><trkpt lat="44.886081151516024" lon="8.969479853237921"><ele>250.28571428571428</ele><time>2026-05-01T10:05:22.998Z</time></trkpt><trkpt lat="44.88603237383365" lon="8.96954636008203"><ele>247.1428571428571</ele><time>2026-05-01T10:05:31.998Z</time></trkpt><trkpt lat="44.88604647882841" lon="8.969636058861138"><ele>243.99999999999997</ele><time>2026-05-01T10:05:48.998Z</time></trkpt><trkpt lat="44.88611952836093" lon="8.969611583575398"><ele>243.99999999999997</ele><time>2026-05-01T10:06:05.997Z</time></trkpt><trkpt lat="44.886165538069015" lon="8.969676286432035"><ele>244.0</ele><time>2026-05-01T10:06:18.997Z</time></trkpt><trkpt lat="44.886149499997686" lon="8.969762413925842"><ele>243.99999999999997</ele><time>2026-05-01T10:06:27Z</time></trkpt><trkpt lat="44.886079542269734" lon="8.969768918631958"><ele>243.99999999999997</ele><time>2026-05-01T10:06:39Z</time></trkpt><trkpt lat="44.886016540757474" lon="8.969726391150942"><ele>244.0</ele><time>2026-05-01T10:06:46Z</time></trkpt><trkpt lat="44.88594847561121" lon="8.96974030725864"><ele>243.99999999999997</ele><time>2026-05-01T10:06:53Z</time></trkpt><trkpt lat="44.885886153850784" lon="8.96979179167836"><ele>243.99999999999997</ele><time>2026-05-01T10:07:05.999Z</time></trkpt><trkpt lat="44.885835328495105" lon="8.969852945491521"><ele>245.1428571428571</ele><time>2026-05-01T10:07:13.999Z</time></trkpt><trkpt lat="44.8858225533199" lon="8.969946467402625"><ele>246.28571428571428</ele><time>2026-05-01T10:07:20.999Z</time></trkpt><trkpt lat="44.88587436691261" lon="8.970001264875943"><ele>247.42857142857142</ele><time>2026-05-01T10:07:28.999Z</time></trkpt><trkpt lat="44.88585619688678" lon="8.970089734964791"><ele>248.57142857142856</ele><time>2026-05-01T10:07:43.998Z</time></trkpt><trkpt lat="44.88577551892064" lon="8.970101303630742"><ele>249.71428571428572</ele><time>2026-05-01T10:07:51.998Z</time></trkpt><trkpt lat="44.88570529498792" lon="8.970104657431493"><ele>250.85714285714286</ele><time>2026-05-01T10:07:58.998Z</time></trkpt><trkpt lat="44.88563833580571" lon="8.97009938876781"><ele>252.0</ele><time>2026-05-01T10:08:04.998Z</time></trkpt><trkpt lat="44.88556803292666" lon="8.970077252528254"><ele>249.71428571428572</ele><time>2026-05-01T10:08:12.998Z</time></trkpt><trkpt lat="44.88550257474031" lon="8.970098817000586"><ele>247.42857142857144</ele><time>2026-05-01T10:08:18.998Z</time></trkpt><trkpt lat="44.88543762200964" lon="8.970141800928632"><ele>245.14285714285714</ele><time>2026-05-01T10:08:29.997Z</time></trkpt><trkpt lat="44.8853737142688" lon="8.970196937461925"><ele>242.85714285714286</ele><time>2026-05-01T10:08:38Z</time></trkpt><trkpt lat="44.88535134914359" lon="8.970280539713654"><ele>240.57142857142858</ele><time>2026-05-01T10:08:50Z</time></trkpt><trkpt lat="44.88538310845248" lon="8.970371843904077"><ele>238.28571428571428</ele><time>2026-05-01T10:08:59Z</time></trkpt><trkpt lat="44.885439005286585" lon="8.970418125937634"><ele>236.0</ele><time>2026-05-01T10:09:09Z</time></trkpt><trkpt lat="44.88550868761562" lon="8.970446363228357"><ele>236.0</ele><time>2026-05-01T10:09:16.999Z</time></trkpt><trkpt lat="44.88557241937853" lon="8.970423039916522"><ele>236.0</ele><time>2026-05-01T10:09:25.999Z</time></trkpt><trkpt lat="44.885566494548385" lon="8.970330529444832"><ele>236.0</ele><time>2026-05-01T10:09:40.999Z</time></trkpt><trkpt lat="44.8855169938733" lon="8.970268415507102"><ele>236.0</ele><time>2026-05-01T10:10:07.998Z</time></trkpt><trkpt lat="44.88556263453199" lon="8.970200553912395"><ele>236.0</ele><time>2026-05-01T10:10:25.998Z</time></trkpt><trkpt lat="44.88562841183294" lon="8.97021806386579"><ele>236.0</ele><time>2026-05-01T10:10:33.998Z</time></trkpt><trkpt lat="44.88570176120758" lon="8.970195046802068"><ele>236.0</ele><time>2026-05-01T10:10:44.001Z</time></trkpt><trkpt lat="44.885766643119695" lon="8.970164621284818"><ele>236.0</ele><time>2026-05-01T10:10:55Z</time></trkpt><trkpt lat="44.88583984364506" lon="8.970156519371535"><ele>236.0</ele><time>2026-05-01T10:11:05Z</time></trkpt><trkpt lat="44.8859026839419" lon="8.970148016660087"><ele>236.0</ele><time>2026-05-01T10:11:12Z</time></trkpt><trkpt lat="44.885967833329936" lon="8.97019204783737"><ele>236.0</ele><time>2026-05-01T10:11:23Z</time></trkpt><trkpt lat="44.88601722784911" lon="8.970257483603033"><ele>236.0</ele><time>2026-05-01T10:11:38.999Z</time></trkpt><trkpt lat="44.88608838348504" lon="8.970265517557403"><ele>236.0</ele><time>2026-05-01T10:11:48.999Z</time></trkpt><trkpt lat="44.886153402243245" lon="8.97029356563253"><ele>236.0</ele><time>2026-05-01T10:11:56.999Z</time></trkpt><trkpt lat="44.88621268810837" lon="8.970340590640832"><ele>235.00000000000003</ele><time>2026-05-01T10:12:07.998Z</time></trkpt><trkpt lat="44.886266180542044" lon="8.97041590679844"><ele>234.0</ele><time>2026-05-01T10:12:34.998Z</time></trkpt><trkpt lat="44.88627370586442" lon="8.970573155264388"><ele>233.0</ele><time>2026-05-01T10:13:39.999Z</time></trkpt><trkpt lat="44.88627842031097" lon="8.970670257106248"><ele>232.0</ele><time>2026-05-01T10:13:59.999Z</time></trkpt><trkpt lat="44.88626668153978" lon="8.970761764756002"><ele>231.00000000000003</ele><time>2026-05-01T10:14:30.998Z</time></trkpt><trkpt lat="44.88624969557311" lon="8.970860011280067"><ele>230.0</ele><time>2026-05-01T10:14:47.997Z</time></trkpt><trkpt lat="44.886210444898005" lon="8.97094195133335"><ele>229.99999999999997</ele><time>2026-05-01T10:15:01.001Z</time></trkpt><trkpt lat="44.88620350855619" lon="8.97103792658029"><ele>230.0</ele><time>2026-05-01T10:15:09Z</time></trkpt><trkpt lat="44.88627234701324" lon="8.971098858852189"><ele>229.99999999999997</ele><time>2026-05-01T10:15:18Z</time></trkpt><trkpt lat="44.886335357159936" lon="8.971073784540177"><ele>229.99999999999997</ele><time>2026-05-01T10:16:25.998Z</time></trkpt><trkpt lat="44.88640777804475" lon="8.97106673787083"><ele>230.0</ele><time>2026-05-01T10:16:35.998Z</time></trkpt><trkpt lat="44.88648219148412" lon="8.971040828264838"><ele>229.99999999999997</ele><time>2026-05-01T10:16:44.998Z</time></trkpt><trkpt lat="44.88653816062587" lon="8.970993274712166"><ele>229.99999999999997</ele><time>2026-05-01T10:16:53.997Z</time></trkpt><trkpt lat="44.8866153945151" lon="8.970991285712623"><ele>229.99999999999997</ele><time>2026-05-01T10:17:01.001Z</time></trkpt><trkpt lat="44.88668347987282" lon="8.970969532903236"><ele>230.0</ele><time>2026-05-01T10:17:07Z</time></trkpt><trkpt lat="44.8867397257674" lon="8.970915933124953"><ele>229.99999999999997</ele><time>2026-05-01T10:17:15Z</time></trkpt><trkpt lat="44.8868049664874" lon="8.970884627073524"><ele>229.99999999999997</ele><time>2026-05-01T10:17:24Z</time></trkpt><trkpt lat="44.88687151744288" lon="8.970859096509592"><ele>230.0</ele><time>2026-05-01T10:17:30Z</time></trkpt><trkpt lat="44.88694022891394" lon="8.970838818501916"><ele>229.99999999999997</ele><time>2026-05-01T10:17:37.999Z</time></trkpt><trkpt lat="44.88700393501727" lon="8.970830673163388"><ele>229.99999999999997</ele><time>2026-05-01T10:17:45.999Z</time></trkpt><trkpt lat="44.88707051538184" lon="8.97083854424502"><ele>228.1428571428571</ele><time>2026-05-01T10:17:51.999Z</time></trkpt><trkpt lat="44.887127421874176" lon="8.970877250269613"><ele>226.28571428571428</ele><time>2026-05-01T10:17:59.999Z</time></trkpt><trkpt lat="44.88718554579974" lon="8.970917782129435"><ele>224.42857142857142</ele><time>2026-05-01T10:18:06.999Z</time></trkpt><trkpt lat="44.88725087209525" lon="8.970946089355886"><ele>222.57142857142856</ele><time>2026-05-01T10:18:12.998Z</time></trkpt><trkpt lat="44.8873133734064" lon="8.970965713697945"><ele>220.71428571428572</ele><time>2026-05-01T10:18:18.998Z</time></trkpt><trkpt lat="44.88737937340341" lon="8.97096314582012"><ele>218.85714285714286</ele><time>2026-05-01T10:18:26.998Z</time></trkpt><trkpt lat="44.88744474830804" lon="8.970988306077102"><ele>217.0</ele><time>2026-05-01T10:18:32.998Z</time></trkpt><trkpt lat="44.88750996093707" lon="8.970983895068619"><ele>217.0</ele><time>2026-05-01T10:18:36.998Z</time></trkpt><trkpt lat="44.88757411153304" lon="8.970989979967825"><ele>217.0</ele><time>2026-05-01T10:18:43.998Z</time></trkpt><trkpt lat="44.88763866930509" lon="8.97100266974654"><ele>217.0</ele><time>2026-05-01T10:18:48.997Z</time></trkpt><trkpt lat="44.88771267392782" lon="8.971020766719523"><ele>217.0</ele><time>2026-05-01T10:18:58.997Z</time></trkpt><trkpt lat="44.88777715446385" lon="8.97101569773186"><ele>217.0</ele><time>2026-05-01T10:19:06Z</time></trkpt><trkpt lat="44.88784276705618" lon="8.971042123316723"><ele>217.0</ele><time>2026-05-01T10:19:11Z</time></trkpt><trkpt lat="44.887911990834716" lon="8.971044061228946"><ele>217.0</ele><time>2026-05-01T10:19:18Z</time></trkpt><trkpt lat="44.887978088904184" lon="8.971061167356863"><ele>215.49999999999997</ele><time>2026-05-01T10:19:24Z</time></trkpt><trkpt lat="44.88802952788727" lon="8.971125006215182"><ele>214.0</ele><time>2026-05-01T10:19:31Z</time></trkpt><trkpt lat="44.88806441646068" lon="8.971305469554371"><ele>212.5</ele><time>2026-05-01T10:22:46.998Z</time></trkpt><trkpt lat="44.88799416742535" lon="8.97128452905645"><ele>211.0</ele><time>2026-05-01T10:22:52.998Z</time></trkpt><trkpt lat="44.88792520344724" lon="8.971267641800141"><ele>209.49999999999997</ele><time>2026-05-01T10:22:58.997Z</time></trkpt><trkpt lat="44.887849867671186" lon="8.971251518239171"><ele>208.0</ele><time>2026-05-01T10:23:05.997Z</time></trkpt><trkpt lat="44.887781839581066" lon="8.971257838506007"><ele>208.0</ele><time>2026-05-01T10:23:12Z</time></trkpt><trkpt lat="44.887735468644536" lon="8.971318642619268"><ele>208.0</ele><time>2026-05-01T10:23:17Z</time></trkpt><trkpt lat="44.887733916735094" lon="8.971419398503304"><ele>208.0</ele><time>2026-05-01T10:23:23Z</time></trkpt><trkpt lat="44.88778963153092" lon="8.9714804810586"><ele>208.0</ele><time>2026-05-01T10:23:29Z</time></trkpt><trkpt lat="44.88785566066" lon="8.971496524561596"><ele>208.0</ele><time>2026-05-01T10:23:34Z</time></trkpt><trkpt lat="44.88792406983693" lon="8.97152161850233"><ele>208.0</ele><time>2026-05-01T10:23:50Z</time></trkpt><trkpt lat="44.88797945929946" lon="8.971572020850587"><ele>208.0</ele><time>2026-05-01T10:23:55Z</time></trkpt><trkpt lat="44.88800709289856" lon="8.971664543638349"><ele>209.57142857142856</ele><time>2026-05-01T10:23:59.999Z</time></trkpt><trkpt lat="44.88804828997157" lon="8.971781846819338"><ele>211.14285714285717</ele><time>2026-05-01T10:24:05.999Z</time></trkpt><trkpt lat="44.8880955350978" lon="8.971863208120057"><ele>212.71428571428572</ele><time>2026-05-01T10:24:16.999Z</time></trkpt><trkpt lat="44.8881535036981" lon="8.971912761215894"><ele>214.28571428571428</ele><time>2026-05-01T10:24:22.999Z</time></trkpt><trkpt lat="44.88820629728064" lon="8.971961916934688"><ele>215.85714285714283</ele><time>2026-05-01T10:24:28.999Z</time></trkpt><trkpt lat="44.88826138428535" lon="8.972006058807695"><ele>217.42857142857144</ele><time>2026-05-01T10:24:35.998Z</time></trkpt><trkpt lat="44.888317014919764" lon="8.972064486982198"><ele>219.0</ele><time>2026-05-01T10:24:42.998Z</time></trkpt><trkpt lat="44.88838023482524" lon="8.972121255950395"><ele>217.71428571428572</ele><time>2026-05-01T10:24:49.998Z</time></trkpt><trkpt lat="44.88843309022414" lon="8.972183795949196"><ele>216.42857142857142</ele><time>2026-05-01T10:24:56.998Z</time></trkpt><trkpt lat="44.888497034281585" lon="8.972231530537453"><ele>215.14285714285714</ele><time>2026-05-01T10:25:01.998Z</time></trkpt><trkpt lat="44.88856037887142" lon="8.972291164973495"><ele>213.85714285714286</ele><time>2026-05-01T10:25:07.997Z</time></trkpt><trkpt lat="44.888621993164584" lon="8.97232559991145"><ele>212.57142857142856</ele><time>2026-05-01T10:25:15.997Z</time></trkpt><trkpt lat="44.88861058353758" lon="8.972415767696651"><ele>211.28571428571428</ele><time>2026-05-01T10:25:24Z</time></trkpt><trkpt lat="44.888564417222156" lon="8.972485996204862"><ele>210.0</ele><time>2026-05-01T10:25:33Z</time></trkpt><trkpt lat="44.888501973536165" lon="8.972501798464318"><ele>210.0</ele><time>2026-05-01T10:25:39Z</time></trkpt><trkpt lat="44.8884365679734" lon="8.97249382531323"><ele>210.0</ele><time>2026-05-01T10:25:45Z</time></trkpt><trkpt lat="44.88836988067996" lon="8.972448092499553"><ele>210.0</ele><time>2026-05-01T10:25:52Z</time></trkpt><trkpt lat="44.88831584629839" lon="8.972397415564608"><ele>210.0</ele><time>2026-05-01T10:25:57Z</time></trkpt><trkpt lat="44.88826836175177" lon="8.972333321284697"><ele>210.0</ele><time>2026-05-01T10:26:02.999Z</time></trkpt><trkpt lat="44.88821903032616" lon="8.972261427716873"><ele>210.0</ele><time>2026-05-01T10:26:08.999Z</time></trkpt><trkpt lat="44.88817998355245" lon="8.97218624675513"><ele>210.0</ele><time>2026-05-01T10:26:13.999Z</time></trkpt><trkpt lat="44.888130103026405" lon="8.972130402380333"><ele>211.28571428571428</ele><time>2026-05-01T10:26:19.999Z</time></trkpt><trkpt lat="44.888057207608746" lon="8.972142642610137"><ele>212.57142857142856</ele><time>2026-05-01T10:26:25.999Z</time></trkpt><trkpt lat="44.88801017284487" lon="8.97221229313413"><ele>213.85714285714286</ele><time>2026-05-01T10:26:36.999Z</time></trkpt><trkpt lat="44.887975844142694" lon="8.97228737711302"><ele>215.14285714285714</ele><time>2026-05-01T10:26:48.998Z</time></trkpt><trkpt lat="44.88794190735676" lon="8.972369906963284"><ele>216.42857142857142</ele><time>2026-05-01T10:27:01.998Z</time></trkpt><trkpt lat="44.88789791584404" lon="8.972441382103568"><ele>217.71428571428572</ele><time>2026-05-01T10:27:15.997Z</time></trkpt><trkpt lat="44.88782526922392" lon="8.972470047445483"><ele>219.0</ele><time>2026-05-01T10:27:32Z</time></trkpt><trkpt lat="44.88775759207251" lon="8.97242493461535"><ele>219.0</ele><time>2026-05-01T10:27:58.999Z</time></trkpt><trkpt lat="44.88775816314205" lon="8.972326422476124"><ele>219.0</ele><time>2026-05-01T10:28:10.999Z</time></trkpt><trkpt lat="44.88774271940703" lon="8.972225496589417"><ele>219.0</ele><time>2026-05-01T10:28:18.998Z</time></trkpt><trkpt lat="44.88770271933331" lon="8.972139345027148"><ele>219.0</ele><time>2026-05-01T10:28:26.998Z</time></trkpt><trkpt lat="44.887644003424796" lon="8.972078737265324"><ele>219.0</ele><time>2026-05-01T10:28:32.998Z</time></trkpt><trkpt lat="44.887592846316" lon="8.972019295627305"><ele>219.0</ele><time>2026-05-01T10:28:37.998Z</time></trkpt><trkpt lat="44.88754105924664" lon="8.971940878502155"><ele>219.0</ele><time>2026-05-01T10:28:43.998Z</time></trkpt><trkpt lat="44.88749368317429" lon="8.971880510529417"><ele>218.71428571428572</ele><time>2026-05-01T10:28:48.997Z</time></trkpt><trkpt lat="44.887441083295045" lon="8.971815240141355"><ele>218.42857142857142</ele><time>2026-05-01T10:28:53.997Z</time></trkpt><trkpt lat="44.887392843455544" lon="8.971747424406868"><ele>218.14285714285714</ele><time>2026-05-01T10:28:58.997Z</time></trkpt><trkpt lat="44.887335364866615" lon="8.971672432441261"><ele>217.85714285714286</ele><time>2026-05-01T10:29:06.997Z</time></trkpt><trkpt lat="44.88728195646838" lon="8.97161891080882"><ele>217.57142857142856</ele><time>2026-05-01T10:29:13.997Z</time></trkpt><trkpt lat="44.88722843130341" lon="8.971544998886063"><ele>217.28571428571428</ele><time>2026-05-01T10:29:18.997Z</time></trkpt><trkpt lat="44.887173029093" lon="8.971493115712235"><ele>217.0</ele><time>2026-05-01T10:29:24.996Z</time></trkpt><trkpt lat="44.88711943377022" lon="8.97143053119337"><ele>217.0</ele><time>2026-05-01T10:29:29.999Z</time></trkpt><trkpt lat="44.8870908511571" lon="8.971345838135978"><ele>217.0</ele><time>2026-05-01T10:29:34.999Z</time></trkpt><trkpt lat="44.8870657511743" lon="8.971247667677892"><ele>217.0</ele><time>2026-05-01T10:29:41.999Z</time></trkpt><trkpt lat="44.88702606356988" lon="8.971168737007964"><ele>217.0</ele><time>2026-05-01T10:29:46.999Z</time></trkpt><trkpt lat="44.88697006211286" lon="8.971124935550156"><ele>217.0</ele><time>2026-05-01T10:29:52.999Z</time></trkpt><trkpt lat="44.88690246181414" lon="8.971110155709441"><ele>217.0</ele><time>2026-05-01T10:29:58.999Z</time></trkpt><trkpt lat="44.88682915099444" lon="8.971092737128826"><ele>217.0</ele><time>2026-05-01T10:30:04.999Z</time></trkpt><trkpt lat="44.88676576036121" lon="8.971096193688298"><ele>218.85714285714286</ele><time>2026-05-01T10:30:11.999Z</time></trkpt><trkpt lat="44.88670761352829" lon="8.971137382181283"><ele>220.71428571428572</ele><time>2026-05-01T10:30:17.998Z</time></trkpt><trkpt lat="44.886656181434205" lon="8.971199261075434"><ele>222.57142857142856</ele><time>2026-05-01T10:30:25.998Z</time></trkpt><trkpt lat="44.88660031750126" lon="8.971240483718239"><ele>224.42857142857142</ele><time>2026-05-01T10:30:33.998Z</time></trkpt><trkpt lat="44.886536815848416" lon="8.971251780875736"><ele>226.28571428571428</ele><time>2026-05-01T10:30:41.998Z</time></trkpt><trkpt lat="44.886470753283966" lon="8.971237542816915"><ele>228.1428571428571</ele><time>2026-05-01T10:30:48.998Z</time></trkpt><trkpt lat="44.88639889106347" lon="8.971222438405908"><ele>229.99999999999997</ele><time>2026-05-01T10:30:56.997Z</time></trkpt><trkpt lat="44.8863340244742" lon="8.97121754355712"><ele>229.99999999999997</ele><time>2026-05-01T10:31:04.997Z</time></trkpt><trkpt lat="44.8862781961225" lon="8.97128377842514"><ele>230.0</ele><time>2026-05-01T10:31:14.997Z</time></trkpt><trkpt lat="44.886254749455155" lon="8.971378239787958"><ele>229.99999999999997</ele><time>2026-05-01T10:31:25.997Z</time></trkpt><trkpt lat="44.88621943566768" lon="8.971458124781345"><ele>229.99999999999997</ele><time>2026-05-01T10:31:33.996Z</time></trkpt><trkpt lat="44.88619178575053" lon="8.971544338152155"><ele>230.0</ele><time>2026-05-01T10:31:55.999Z</time></trkpt><trkpt lat="44.88612280135799" lon="8.971530481672561"><ele>229.99999999999997</ele><time>2026-05-01T10:32:02.999Z</time></trkpt><trkpt lat="44.886075882510156" lon="8.9714647203284"><ele>229.99999999999997</ele><time>2026-05-01T10:32:21.999Z</time></trkpt><trkpt lat="44.886027923104976" lon="8.97139344407899"><ele>229.99999999999997</ele><time>2026-05-01T10:32:30.998Z</time></trkpt><trkpt lat="44.88596507034612" lon="8.971359349839867"><ele>230.0</ele><time>2026-05-01T10:32:34.998Z</time></trkpt><trkpt lat="44.885967439056955" lon="8.971258841466511"><ele>229.99999999999997</ele><time>2026-05-01T10:32:43.998Z</time></trkpt><trkpt lat="44.88600936340607" lon="8.971178200264786"><ele>229.99999999999997</ele><time>2026-05-01T10:32:52.998Z</time></trkpt><trkpt lat="44.885961591761756" lon="8.971112003344855"><ele>230.0</ele><time>2026-05-01T10:32:59.998Z</time></trkpt><trkpt lat="44.88588864369294" lon="8.9711079557423"><ele>229.99999999999997</ele><time>2026-05-01T10:33:06.997Z</time></trkpt><trkpt lat="44.88582339800721" lon="8.971087206940863"><ele>229.99999999999997</ele><time>2026-05-01T10:33:13.997Z</time></trkpt><trkpt lat="44.88575693269108" lon="8.97106965211658"><ele>230.99999999999997</ele><time>2026-05-01T10:33:19.997Z</time></trkpt><trkpt lat="44.885687603623445" lon="8.971072519600142"><ele>232.0</ele><time>2026-05-01T10:33:26.997Z</time></trkpt><trkpt lat="44.885624256111306" lon="8.971059656988256"><ele>232.99999999999997</ele><time>2026-05-01T10:33:32.997Z</time></trkpt><trkpt lat="44.885556930054285" lon="8.971052726646766"><ele>233.99999999999997</ele><time>2026-05-01T10:33:40.999Z</time></trkpt><trkpt lat="44.88549563396612" lon="8.971028056929196"><ele>235.0</ele><time>2026-05-01T10:33:46.999Z</time></trkpt><trkpt lat="44.88543270296394" lon="8.970992815278379"><ele>235.99999999999997</ele><time>2026-05-01T10:33:52.999Z</time></trkpt><trkpt lat="44.88536336485301" lon="8.97098736181236"><ele>236.99999999999997</ele><time>2026-05-01T10:34:00.999Z</time></trkpt><trkpt lat="44.88529697967939" lon="8.970973914965784"><ele>236.99999999999997</ele><time>2026-05-01T10:34:08.999Z</time></trkpt><trkpt lat="44.88524980019108" lon="8.97104686990832"><ele>237.0</ele><time>2026-05-01T10:34:16.999Z</time></trkpt><trkpt lat="44.885246509371825" lon="8.971138258568033"><ele>236.99999999999997</ele><time>2026-05-01T10:34:22.999Z</time></trkpt><trkpt lat="44.88526777527691" lon="8.971226710945448"><ele>236.99999999999997</ele><time>2026-05-01T10:34:31.998Z</time></trkpt><trkpt lat="44.885276365879314" lon="8.971318608532625"><ele>237.0</ele><time>2026-05-01T10:34:40.998Z</time></trkpt><trkpt lat="44.885282154167314" lon="8.97141184400718"><ele>236.99999999999997</ele><time>2026-05-01T10:34:52.998Z</time></trkpt><trkpt lat="44.885325262154026" lon="8.971488661468443"><ele>236.99999999999997</ele><time>2026-05-01T10:35:04.998Z</time></trkpt><trkpt lat="44.88539246568822" lon="8.97152456201421"><ele>236.99999999999997</ele><time>2026-05-01T10:35:13.997Z</time></trkpt><trkpt lat="44.885461425959384" lon="8.971542221274762"><ele>237.0</ele><time>2026-05-01T10:35:21.997Z</time></trkpt><trkpt lat="44.88552774317155" lon="8.971572708118536"><ele>236.99999999999997</ele><time>2026-05-01T10:35:28.997Z</time></trkpt><trkpt lat="44.88557924009605" lon="8.971628971026586"><ele>236.99999999999997</ele><time>2026-05-01T10:35:34.997Z</time></trkpt><trkpt lat="44.88561066924237" lon="8.971714479789558"><ele>237.0</ele><time>2026-05-01T10:35:42.996Z</time></trkpt><trkpt lat="44.885592393529315" lon="8.971800996984685"><ele>236.99999999999997</ele><time>2026-05-01T10:35:49Z</time></trkpt><trkpt lat="44.8855256900141" lon="8.97181085616972"><ele>236.99999999999997</ele><time>2026-05-01T10:36:00Z</time></trkpt><trkpt lat="44.885447102489366" lon="8.971791716485443"><ele>236.99999999999997</ele><time>2026-05-01T10:36:07.999Z</time></trkpt><trkpt lat="44.885407392704195" lon="8.97171988092874"><ele>237.0</ele><time>2026-05-01T10:36:16.999Z</time></trkpt><trkpt lat="44.88536709248725" lon="8.971641818515693"><ele>236.99999999999997</ele><time>2026-05-01T10:36:23.999Z</time></trkpt><trkpt lat="44.885317105250095" lon="8.971546726727821"><ele>236.99999999999997</ele><time>2026-05-01T10:36:31.999Z</time></trkpt><trkpt lat="44.885250024730965" lon="8.971535117722691"><ele>237.0</ele><time>2026-05-01T10:36:36.999Z</time></trkpt><trkpt lat="44.885220753786996" lon="8.971615490569565"><ele>236.99999999999997</ele><time>2026-05-01T10:36:46.998Z</time></trkpt><trkpt lat="44.88520018382673" lon="8.971701882185315"><ele>236.99999999999997</ele><time>2026-05-01T10:36:56.998Z</time></trkpt><trkpt lat="44.885188513665454" lon="8.971799562203403"><ele>240.4285714285714</ele><time>2026-05-01T10:37:14.998Z</time></trkpt><trkpt lat="44.885195700170485" lon="8.9718882796903"><ele>243.85714285714283</ele><time>2026-05-01T10:37:27.997Z</time></trkpt><trkpt lat="44.88519161977555" lon="8.971988819408123"><ele>247.28571428571428</ele><time>2026-05-01T10:37:38.997Z</time></trkpt><trkpt lat="44.885154724952024" lon="8.972063627351714"><ele>250.7142857142857</ele><time>2026-05-01T10:37:52Z</time></trkpt><trkpt lat="44.88510154044722" lon="8.97200882904587"><ele>254.1428571428571</ele><time>2026-05-01T10:38:02Z</time></trkpt><trkpt lat="44.885058642564644" lon="8.971926626379192"><ele>257.57142857142856</ele><time>2026-05-01T10:38:10Z</time></trkpt><trkpt lat="44.88501812665778" lon="8.971848483615448"><ele>261.0</ele><time>2026-05-01T10:38:17.999Z</time></trkpt><trkpt lat="44.88498535890142" lon="8.971757038512958"><ele>259.2857142857143</ele><time>2026-05-01T10:38:22.999Z</time></trkpt><trkpt lat="44.88494179656485" lon="8.97168850076676"><ele>257.57142857142856</ele><time>2026-05-01T10:38:27.999Z</time></trkpt><trkpt lat="44.88488982334698" lon="8.971637077333899"><ele>255.85714285714283</ele><time>2026-05-01T10:38:33.999Z</time></trkpt><trkpt lat="44.88482156343597" lon="8.971600032287057"><ele>254.14285714285714</ele><time>2026-05-01T10:38:39.999Z</time></trkpt><trkpt lat="44.88475741437752" lon="8.9715837559419"><ele>252.4285714285714</ele><time>2026-05-01T10:38:44.999Z</time></trkpt><trkpt lat="44.8846845030087" lon="8.971568782417654"><ele>250.7142857142857</ele><time>2026-05-01T10:38:50.999Z</time></trkpt><trkpt lat="44.884614412985634" lon="8.971555886779994"><ele>249.0</ele><time>2026-05-01T10:38:56.998Z</time></trkpt><trkpt lat="44.884551993531204" lon="8.971535823737023"><ele>249.0</ele><time>2026-05-01T10:39:02.998Z</time></trkpt><trkpt lat="44.88448004716977" lon="8.971513127027947"><ele>248.99999999999997</ele><time>2026-05-01T10:39:07.998Z</time></trkpt><trkpt lat="44.884409369023324" lon="8.971493193138471"><ele>249.0</ele><time>2026-05-01T10:39:12.998Z</time></trkpt><trkpt lat="44.8843533524353" lon="8.971437108455035"><ele>249.0</ele><time>2026-05-01T10:39:19.998Z</time></trkpt><trkpt lat="44.88438872828513" lon="8.97135640086812"><ele>248.99999999999997</ele><time>2026-05-01T10:39:34.997Z</time></trkpt><trkpt lat="44.884437046477075" lon="8.971286077413502"><ele>249.0</ele><time>2026-05-01T10:39:42.997Z</time></trkpt><trkpt lat="44.884492355277985" lon="8.971219678379956"><ele>249.0</ele><time>2026-05-01T10:39:50.997Z</time></trkpt><trkpt lat="44.88456309425579" lon="8.971193279897507"><ele>249.0</ele><time>2026-05-01T10:39:59Z</time></trkpt><trkpt lat="44.88462685482882" lon="8.971212872766415"><ele>248.99999999999997</ele><time>2026-05-01T10:40:04Z</time></trkpt><trkpt lat="44.88468899455874" lon="8.971247030657036"><ele>249.0</ele><time>2026-05-01T10:40:10Z</time></trkpt><trkpt lat="44.88475524761116" lon="8.971270889486304"><ele>249.0</ele><time>2026-05-01T10:40:16Z</time></trkpt><trkpt lat="44.88482509429296" lon="8.971300269225654"><ele>248.99999999999997</ele><time>2026-05-01T10:40:22.999Z</time></trkpt><trkpt lat="44.88488756839811" lon="8.971315007478276"><ele>249.0</ele><time>2026-05-01T10:40:28.999Z</time></trkpt><trkpt lat="44.88495326696314" lon="8.971326095549232"><ele>249.0</ele><time>2026-05-01T10:40:34.999Z</time></trkpt><trkpt lat="44.8850237482676" lon="8.971342286741864"><ele>249.0</ele><time>2026-05-01T10:40:41.999Z</time></trkpt><trkpt lat="44.88509576229725" lon="8.971333171354042"><ele>248.99999999999997</ele><time>2026-05-01T10:40:46.999Z</time></trkpt><trkpt lat="44.88516038546929" lon="8.97131654241258"><ele>249.0</ele><time>2026-05-01T10:40:55.998Z</time></trkpt><trkpt lat="44.88518208158656" lon="8.971229860425074"><ele>249.0</ele><time>2026-05-01T10:41:06.998Z</time></trkpt><trkpt lat="44.88517745106023" lon="8.97112997607514"><ele>248.99999999999997</ele><time>2026-05-01T10:41:14.998Z</time></trkpt><trkpt lat="44.88512498705363" lon="8.971074054883495"><ele>249.0</ele><time>2026-05-01T10:41:22.998Z</time></trkpt><trkpt lat="44.88506784354386" lon="8.97101612842613"><ele>249.0</ele><time>2026-05-01T10:41:36.997Z</time></trkpt><trkpt lat="44.885016792368006" lon="8.970939327411555"><ele>249.0</ele><time>2026-05-01T10:41:43.997Z</time></trkpt><trkpt lat="44.88495816882698" lon="8.97088915200024"><ele>248.99999999999997</ele><time>2026-05-01T10:41:58.997Z</time></trkpt><trkpt lat="44.8848922699763" lon="8.970872971013906"><ele>249.0</ele><time>2026-05-01T10:42:06Z</time></trkpt><trkpt lat="44.88482064591319" lon="8.970872204733027"><ele>249.0</ele><time>2026-05-01T10:42:13Z</time></trkpt><trkpt lat="44.88475810065707" lon="8.970896795619648"><ele>248.99999999999997</ele><time>2026-05-01T10:42:35.999Z</time></trkpt><trkpt lat="44.8846972863305" lon="8.970866415139271"><ele>249.0</ele><time>2026-05-01T10:42:42.999Z</time></trkpt><trkpt lat="44.884617594650905" lon="8.970851207532883"><ele>249.0</ele><time>2026-05-01T10:42:49.999Z</time></trkpt><trkpt lat="44.88455373328742" lon="8.970867593532589"><ele>249.0</ele><time>2026-05-01T10:42:57.999Z</time></trkpt><trkpt lat="44.88449193654725" lon="8.970911909433134"><ele>248.99999999999997</ele><time>2026-05-01T10:43:10.998Z</time></trkpt><trkpt lat="44.88442818284871" lon="8.970880780642949"><ele>249.0</ele><time>2026-05-01T10:43:18.998Z</time></trkpt><trkpt lat="44.88436323461414" lon="8.970858615344149"><ele>249.0</ele><time>2026-05-01T10:43:29.998Z</time></trkpt><trkpt lat="44.884292314458754" lon="8.970847566653742"><ele>248.99999999999997</ele><time>2026-05-01T10:43:39.998Z</time></trkpt><trkpt lat="44.88423669511857" lon="8.970890610211017"><ele>249.0</ele><time>2026-05-01T10:43:51.997Z</time></trkpt><trkpt lat="44.88423696746228" lon="8.970996138933426"><ele>249.0</ele><time>2026-05-01T10:43:59.997Z</time></trkpt><trkpt lat="44.884233355200806" lon="8.9710994877353"><ele>250.28571428571428</ele><time>2026-05-01T10:44:05.997Z</time></trkpt><trkpt lat="44.88424885497951" lon="8.97119904867516"><ele>251.57142857142856</ele><time>2026-05-01T10:44:13Z</time></trkpt><trkpt lat="44.88425206760064" lon="8.971303466763818"><ele>252.85714285714283</ele><time>2026-05-01T10:44:21Z</time></trkpt><trkpt lat="44.88424043983969" lon="8.97140073280328"><ele>254.1428571428571</ele><time>2026-05-01T10:44:29Z</time></trkpt><trkpt lat="44.88420381418288" lon="8.971486372806192"><ele>255.42857142857142</ele><time>2026-05-01T10:44:36.999Z</time></trkpt><trkpt lat="44.88414110075409" lon="8.97153826985286"><ele>256.71428571428567</ele><time>2026-05-01T10:44:44.999Z</time></trkpt><trkpt lat="44.88408000546151" lon="8.971566039064088"><ele>258.0</ele><time>2026-05-01T10:44:51.999Z</time></trkpt><trkpt lat="44.884016101423185" lon="8.971594517665785"><ele>257.99999999999994</ele><time>2026-05-01T10:44:59.999Z</time></trkpt><trkpt lat="44.88395295107386" lon="8.971636878143924"><ele>258.0</ele><time>2026-05-01T10:45:07.999Z</time></trkpt><trkpt lat="44.8838918475043" lon="8.971686347508118"><ele>258.0</ele><time>2026-05-01T10:45:17.998Z</time></trkpt><trkpt lat="44.88383620075498" lon="8.971745957764783"><ele>258.0</ele><time>2026-05-01T10:45:27.998Z</time></trkpt><trkpt lat="44.88377802578091" lon="8.971794484903816"><ele>258.0</ele><time>2026-05-01T10:45:36.998Z</time></trkpt><trkpt lat="44.883720143001526" lon="8.971848321528423"><ele>257.99999999999994</ele><time>2026-05-01T10:45:46.998Z</time></trkpt><trkpt lat="44.883664528904795" lon="8.97189187010148"><ele>258.0</ele><time>2026-05-01T10:45:56.997Z</time></trkpt><trkpt lat="44.88360615129422" lon="8.971932088994887"><ele>260.4285714285714</ele><time>2026-05-01T10:46:07.997Z</time></trkpt><trkpt lat="44.883549215928724" lon="8.971980177916064"><ele>262.85714285714283</ele><time>2026-05-01T10:46:25Z</time></trkpt><trkpt lat="44.88348464732568" lon="8.97200039840736"><ele>265.2857142857143</ele><time>2026-05-01T10:46:38Z</time></trkpt><trkpt lat="44.88342531987759" lon="8.97206163975179"><ele>267.71428571428567</ele><time>2026-05-01T10:46:47.999Z</time></trkpt><trkpt lat="44.88336199033081" lon="8.97209213088001"><ele>270.1428571428571</ele><time>2026-05-01T10:46:53.999Z</time></trkpt><trkpt lat="44.883301267517446" lon="8.972133028119167"><ele>272.57142857142856</ele><time>2026-05-01T10:47:01.999Z</time></trkpt><trkpt lat="44.88323966322739" lon="8.972164949371788"><ele>275.0</ele><time>2026-05-01T10:47:07.999Z</time></trkpt><trkpt lat="44.883176383451016" lon="8.972205450079414"><ele>275.0</ele><time>2026-05-01T10:47:15.999Z</time></trkpt><trkpt lat="44.883115147113294" lon="8.972228968829961"><ele>275.0</ele><time>2026-05-01T10:47:22.998Z</time></trkpt><trkpt lat="44.88305771703418" lon="8.972267469416899"><ele>275.0</ele><time>2026-05-01T10:47:29.998Z</time></trkpt><trkpt lat="44.88299525892101" lon="8.972310368161734"><ele>275.0</ele><time>2026-05-01T10:47:37.998Z</time></trkpt><trkpt lat="44.8829329944801" lon="8.972342304547723"><ele>275.0</ele><time>2026-05-01T10:47:47.998Z</time></trkpt><trkpt lat="44.88286709773996" lon="8.972385401457194"><ele>275.0</ele><time>2026-05-01T10:47:55.997Z</time></trkpt><trkpt lat="44.88281752181441" lon="8.972446551266387"><ele>275.0</ele><time>2026-05-01T10:48:05.997Z</time></trkpt><trkpt lat="44.88279939829953" lon="8.972537969624728"><ele>276.8571428571429</ele><time>2026-05-01T10:48:13.997Z</time></trkpt><trkpt lat="44.882828870242086" lon="8.972633644235211"><ele>278.7142857142857</ele><time>2026-05-01T10:48:22Z</time></trkpt><trkpt lat="44.88285341442573" lon="8.972724827252673"><ele>280.57142857142856</ele><time>2026-05-01T10:48:29Z</time></trkpt><trkpt lat="44.882873255348635" lon="8.972817960144196"><ele>282.42857142857144</ele><time>2026-05-01T10:48:37Z</time></trkpt><trkpt lat="44.882895749680905" lon="8.972908100097218"><ele>284.2857142857143</ele><time>2026-05-01T10:48:44Z</time></trkpt><trkpt lat="44.88290785888364" lon="8.972996310340422"><ele>286.14285714285717</ele><time>2026-05-01T10:48:50.999Z</time></trkpt><trkpt lat="44.88292870677432" lon="8.973081387850153"><ele>288.0</ele><time>2026-05-01T10:48:58.999Z</time></trkpt><trkpt lat="44.88294610892874" lon="8.973172405346965"><ele>288.00000000000006</ele><time>2026-05-01T10:49:05.999Z</time></trkpt><trkpt lat="44.88295537791765" lon="8.97327080557109"><ele>288.0</ele><time>2026-05-01T10:49:13.999Z</time></trkpt><trkpt lat="44.88297869664863" lon="8.973362150079566"><ele>288.0</ele><time>2026-05-01T10:49:22.999Z</time></trkpt><trkpt lat="44.882996709439745" lon="8.973453106460633"><ele>288.0</ele><time>2026-05-01T10:49:34.998Z</time></trkpt><trkpt lat="44.88300445137622" lon="8.973551750411806"><ele>288.0</ele><time>2026-05-01T10:49:41.998Z</time></trkpt><trkpt lat="44.883021157231454" lon="8.973637681640081"><ele>288.00000000000006</ele><time>2026-05-01T10:49:49.998Z</time></trkpt><trkpt lat="44.88301411520369" lon="8.973728879455805"><ele>288.0</ele><time>2026-05-01T10:49:57.998Z</time></trkpt><trkpt lat="44.88303010290907" lon="8.97381753254303"><ele>291.0</ele><time>2026-05-01T10:50:03.998Z</time></trkpt></trkseg></trk></gpx>